sensor_id;sensor_type;location;lat;lon;timestamp;P1;durP1;ratioP1;P2;durP2;ratioP2
72601;SDS011;60644;55.858;37.390;2024-03-02T00:00:19;40.40;;;21.05;;
72601;SDS011;60644;55.858;37.390;2024-03-02T00:02:47;37.70;;;19.10;;
72601;SDS011;60644;55.858;37.390;2024-03-02T00:05:14;47.63;;;21.67;;
72601;SDS011;60644;55.858;37.390;2024-03-02T00:07:44;47.28;;;22.45;;
72601;SDS011;60644;55.858;37.390;2024-03-02T00:10:10;43.47;;;20.52;;
72601;SDS011;60644;55.858;37.390;2024-03-02T00:12:40;43.35;;;19.88;;
72601;SDS011;60644;55.858;37.390;2024-03-02T00:15:06;44.13;;;19.67;;
72601;SDS011;60644;55.858;37.390;2024-03-02T00:17:44;43.97;;;19.08;;
72601;SDS011;60644;55.858;37.390;2024-03-02T00:20:10;40.75;;;19.20;;
72601;SDS011;60644;55.858;37.390;2024-03-02T00:22:40;48.83;;;20.75;;
72601;SDS011;60644;55.858;37.390;2024-03-02T00:25:06;48.33;;;21.13;;
72601;SDS011;60644;55.858;37.390;2024-03-02T00:27:33;36.08;;;16.42;;
72601;SDS011;60644;55.858;37.390;2024-03-02T00:30:00;44.30;;;18.83;;
72601;SDS011;60644;55.858;37.390;2024-03-02T00:32:26;43.80;;;19.38;;
72601;SDS011;60644;55.858;37.390;2024-03-02T00:34:53;39.97;;;19.20;;
72601;SDS011;60644;55.858;37.390;2024-03-02T00:37:19;41.87;;;19.57;;
72601;SDS011;60644;55.858;37.390;2024-03-02T00:39:48;39.15;;;19.63;;
72601;SDS011;60644;55.858;37.390;2024-03-02T00:42:14;45.72;;;21.45;;
72601;SDS011;60644;55.858;37.390;2024-03-02T00:44:39;43.50;;;21.27;;
72601;SDS011;60644;55.858;37.390;2024-03-02T00:47:05;46.03;;;21.45;;
72601;SDS011;60644;55.858;37.390;2024-03-02T00:49:31;42.57;;;22.50;;
72601;SDS011;60644;55.858;37.390;2024-03-02T00:51:56;44.20;;;20.80;;
72601;SDS011;60644;55.858;37.390;2024-03-02T00:54:23;45.75;;;21.27;;
72601;SDS011;60644;55.858;37.390;2024-03-02T00:56:51;43.50;;;21.65;;
72601;SDS011;60644;55.858;37.390;2024-03-02T00:59:16;39.00;;;21.10;;
72601;SDS011;60644;55.858;37.390;2024-03-02T01:01:42;42.05;;;21.65;;
72601;SDS011;60644;55.858;37.390;2024-03-02T01:04:08;44.45;;;20.90;;
72601;SDS011;60644;55.858;37.390;2024-03-02T01:06:37;42.80;;;20.73;;
72601;SDS011;60644;55.858;37.390;2024-03-02T01:09:03;43.97;;;21.05;;
72601;SDS011;60644;55.858;37.390;2024-03-02T01:11:29;41.38;;;20.05;;
72601;SDS011;60644;55.858;37.390;2024-03-02T01:13:55;47.75;;;22.40;;
72601;SDS011;60644;55.858;37.390;2024-03-02T01:16:21;43.57;;;19.40;;
72601;SDS011;60644;55.858;37.390;2024-03-02T01:18:47;46.90;;;21.52;;
72601;SDS011;60644;55.858;37.390;2024-03-02T01:21:13;44.75;;;21.40;;
72601;SDS011;60644;55.858;37.390;2024-03-02T01:23:38;43.83;;;19.30;;
72601;SDS011;60644;55.858;37.390;2024-03-02T01:26:04;45.83;;;21.52;;
72601;SDS011;60644;55.858;37.390;2024-03-02T01:28:30;43.37;;;20.77;;
72601;SDS011;60644;55.858;37.390;2024-03-02T01:30:55;44.45;;;20.30;;
72601;SDS011;60644;55.858;37.390;2024-03-02T01:33:24;45.13;;;21.73;;
72601;SDS011;60644;55.858;37.390;2024-03-02T01:35:50;43.85;;;19.77;;
72601;SDS011;60644;55.858;37.390;2024-03-02T01:38:15;41.93;;;19.07;;
72601;SDS011;60644;55.858;37.390;2024-03-02T01:40:41;41.55;;;19.95;;
72601;SDS011;60644;55.858;37.390;2024-03-02T01:43:07;42.97;;;19.73;;
72601;SDS011;60644;55.858;37.390;2024-03-02T01:45:33;47.03;;;20.73;;
72601;SDS011;60644;55.858;37.390;2024-03-02T01:47:59;43.30;;;20.63;;
72601;SDS011;60644;55.858;37.390;2024-03-02T01:50:28;40.77;;;19.33;;
72601;SDS011;60644;55.858;37.390;2024-03-02T01:52:54;39.72;;;18.85;;
72601;SDS011;60644;55.858;37.390;2024-03-02T01:55:20;38.95;;;18.40;;
72601;SDS011;60644;55.858;37.390;2024-03-02T01:57:46;38.70;;;19.03;;
72601;SDS011;60644;55.858;37.390;2024-03-02T02:00:13;43.10;;;19.17;;
72601;SDS011;60644;55.858;37.390;2024-03-02T02:02:39;38.83;;;19.02;;
72601;SDS011;60644;55.858;37.390;2024-03-02T02:05:05;44.53;;;19.33;;
72601;SDS011;60644;55.858;37.390;2024-03-02T02:07:30;43.70;;;19.95;;
72601;SDS011;60644;55.858;37.390;2024-03-02T02:09:57;41.45;;;18.98;;
72601;SDS011;60644;55.858;37.390;2024-03-02T02:12:23;41.25;;;18.63;;
72601;SDS011;60644;55.858;37.390;2024-03-02T02:14:49;36.97;;;18.80;;
72601;SDS011;60644;55.858;37.390;2024-03-02T02:17:17;41.08;;;18.63;;
72601;SDS011;60644;55.858;37.390;2024-03-02T02:19:43;44.63;;;19.90;;
72601;SDS011;60644;55.858;37.390;2024-03-02T02:22:09;38.67;;;19.13;;
72601;SDS011;60644;55.858;37.390;2024-03-02T02:24:35;39.55;;;18.55;;
72601;SDS011;60644;55.858;37.390;2024-03-02T02:27:01;40.60;;;18.60;;
72601;SDS011;60644;55.858;37.390;2024-03-02T02:29:26;38.85;;;19.45;;
72601;SDS011;60644;55.858;37.390;2024-03-02T02:31:52;42.67;;;18.63;;
72601;SDS011;60644;55.858;37.390;2024-03-02T02:34:17;42.43;;;19.50;;
72601;SDS011;60644;55.858;37.390;2024-03-02T02:36:43;38.67;;;18.85;;
72601;SDS011;60644;55.858;37.390;2024-03-02T02:39:10;38.30;;;17.63;;
72601;SDS011;60644;55.858;37.390;2024-03-02T02:41:37;41.83;;;18.38;;
72601;SDS011;60644;55.858;37.390;2024-03-02T02:44:03;44.22;;;20.08;;
72601;SDS011;60644;55.858;37.390;2024-03-02T02:46:29;39.33;;;18.97;;
72601;SDS011;60644;55.858;37.390;2024-03-02T02:48:54;40.55;;;17.90;;
72601;SDS011;60644;55.858;37.390;2024-03-02T02:51:20;48.23;;;20.40;;
72601;SDS011;60644;55.858;37.390;2024-03-02T02:53:45;41.58;;;19.27;;
72601;SDS011;60644;55.858;37.390;2024-03-02T02:56:11;42.58;;;20.00;;
72601;SDS011;60644;55.858;37.390;2024-03-02T02:58:37;40.28;;;18.08;;
72601;SDS011;60644;55.858;37.390;2024-03-02T03:01:03;39.63;;;19.97;;
72601;SDS011;60644;55.858;37.390;2024-03-02T03:03:29;43.35;;;20.00;;
72601;SDS011;60644;55.858;37.390;2024-03-02T03:05:55;38.58;;;18.27;;
72601;SDS011;60644;55.858;37.390;2024-03-02T03:08:21;44.03;;;19.57;;
72601;SDS011;60644;55.858;37.390;2024-03-02T03:10:49;44.30;;;20.25;;
72601;SDS011;60644;55.858;37.390;2024-03-02T03:13:15;42.22;;;19.30;;
72601;SDS011;60644;55.858;37.390;2024-03-02T03:15:40;46.07;;;20.33;;
72601;SDS011;60644;55.858;37.390;2024-03-02T03:18:06;40.83;;;18.90;;
72601;SDS011;60644;55.858;37.390;2024-03-02T03:20:33;42.27;;;20.60;;
72601;SDS011;60644;55.858;37.390;2024-03-02T03:22:59;46.53;;;19.05;;
72601;SDS011;60644;55.858;37.390;2024-03-02T03:25:25;39.70;;;18.92;;
72601;SDS011;60644;55.858;37.390;2024-03-02T03:27:50;41.10;;;19.53;;
72601;SDS011;60644;55.858;37.390;2024-03-02T03:30:18;42.65;;;19.92;;
72601;SDS011;60644;55.858;37.390;2024-03-02T03:32:43;40.80;;;18.77;;
72601;SDS011;60644;55.858;37.390;2024-03-02T03:35:09;42.97;;;19.35;;
72601;SDS011;60644;55.858;37.390;2024-03-02T03:37:35;37.23;;;19.17;;
72601;SDS011;60644;55.858;37.390;2024-03-02T03:40:02;39.35;;;18.42;;
72601;SDS011;60644;55.858;37.390;2024-03-02T03:42:29;43.63;;;19.38;;
72601;SDS011;60644;55.858;37.390;2024-03-02T03:44:55;45.17;;;19.50;;
72601;SDS011;60644;55.858;37.390;2024-03-02T03:47:21;37.25;;;17.95;;
72601;SDS011;60644;55.858;37.390;2024-03-02T03:49:46;41.10;;;20.13;;
72601;SDS011;60644;55.858;37.390;2024-03-02T03:52:12;40.25;;;18.77;;
72601;SDS011;60644;55.858;37.390;2024-03-02T03:54:38;40.90;;;19.20;;
72601;SDS011;60644;55.858;37.390;2024-03-02T03:57:04;44.28;;;20.08;;
72601;SDS011;60644;55.858;37.390;2024-03-02T03:59:30;40.53;;;19.50;;
72601;SDS011;60644;55.858;37.390;2024-03-02T04:01:55;49.60;;;20.88;;
72601;SDS011;60644;55.858;37.390;2024-03-02T04:04:21;43.93;;;19.83;;
72601;SDS011;60644;55.858;37.390;2024-03-02T04:06:47;43.63;;;19.63;;
72601;SDS011;60644;55.858;37.390;2024-03-02T04:09:13;44.37;;;20.50;;
72601;SDS011;60644;55.858;37.390;2024-03-02T04:11:38;42.50;;;19.25;;
72601;SDS011;60644;55.858;37.390;2024-03-02T04:14:04;44.97;;;18.17;;
72601;SDS011;60644;55.858;37.390;2024-03-02T04:16:31;45.15;;;20.10;;
72601;SDS011;60644;55.858;37.390;2024-03-02T04:18:57;41.60;;;17.43;;
72601;SDS011;60644;55.858;37.390;2024-03-02T04:21:22;43.00;;;19.35;;
72601;SDS011;60644;55.858;37.390;2024-03-02T04:23:48;39.07;;;18.90;;
72601;SDS011;60644;55.858;37.390;2024-03-02T04:26:14;42.35;;;18.73;;
72601;SDS011;60644;55.858;37.390;2024-03-02T04:28:40;40.53;;;18.02;;
72601;SDS011;60644;55.858;37.390;2024-03-02T04:31:06;37.70;;;19.07;;
72601;SDS011;60644;55.858;37.390;2024-03-02T04:33:31;38.77;;;18.77;;
72601;SDS011;60644;55.858;37.390;2024-03-02T04:35:57;39.40;;;18.92;;
72601;SDS011;60644;55.858;37.390;2024-03-02T04:38:23;44.43;;;19.20;;
72601;SDS011;60644;55.858;37.390;2024-03-02T04:40:48;42.90;;;20.70;;
72601;SDS011;60644;55.858;37.390;2024-03-02T04:43:14;43.37;;;19.97;;
72601;SDS011;60644;55.858;37.390;2024-03-02T04:45:41;41.25;;;19.05;;
72601;SDS011;60644;55.858;37.390;2024-03-02T04:48:08;39.88;;;19.55;;
72601;SDS011;60644;55.858;37.390;2024-03-02T04:50:33;45.43;;;19.97;;
72601;SDS011;60644;55.858;37.390;2024-03-02T04:53:02;45.90;;;20.48;;
72601;SDS011;60644;55.858;37.390;2024-03-02T04:55:28;45.78;;;20.70;;
72601;SDS011;60644;55.858;37.390;2024-03-02T04:57:53;43.80;;;20.23;;
72601;SDS011;60644;55.858;37.390;2024-03-02T05:00:22;42.17;;;21.52;;
72601;SDS011;60644;55.858;37.390;2024-03-02T05:02:48;53.17;;;22.27;;
72601;SDS011;60644;55.858;37.390;2024-03-02T05:05:13;43.47;;;20.10;;
72601;SDS011;60644;55.858;37.390;2024-03-02T05:07:42;49.75;;;21.20;;
72601;SDS011;60644;55.858;37.390;2024-03-02T05:10:09;45.40;;;20.90;;
72601;SDS011;60644;55.858;37.390;2024-03-02T05:12:35;44.05;;;20.30;;
72601;SDS011;60644;55.858;37.390;2024-03-02T05:15:10;44.83;;;20.73;;
72601;SDS011;60644;55.858;37.390;2024-03-02T05:17:36;47.38;;;22.27;;
72601;SDS011;60644;55.858;37.390;2024-03-02T05:20:03;46.37;;;20.83;;
72601;SDS011;60644;55.858;37.390;2024-03-02T05:22:32;52.85;;;23.25;;
72601;SDS011;60644;55.858;37.390;2024-03-02T05:25:02;52.95;;;23.33;;
72601;SDS011;60644;55.858;37.390;2024-03-02T05:27:30;50.40;;;23.95;;
72601;SDS011;60644;55.858;37.390;2024-03-02T05:30:01;49.67;;;24.08;;
72601;SDS011;60644;55.858;37.390;2024-03-02T05:32:30;51.73;;;24.60;;
72601;SDS011;60644;55.858;37.390;2024-03-02T05:34:56;50.63;;;23.70;;
72601;SDS011;60644;55.858;37.390;2024-03-02T05:37:21;56.43;;;25.10;;
72601;SDS011;60644;55.858;37.390;2024-03-02T05:39:47;56.33;;;24.98;;
72601;SDS011;60644;55.858;37.390;2024-03-02T05:42:13;61.10;;;27.43;;
72601;SDS011;60644;55.858;37.390;2024-03-02T05:44:38;59.67;;;27.97;;
72601;SDS011;60644;55.858;37.390;2024-03-02T05:47:04;56.58;;;26.10;;
72601;SDS011;60644;55.858;37.390;2024-03-02T05:49:30;62.72;;;28.42;;
72601;SDS011;60644;55.858;37.390;2024-03-02T05:51:56;61.13;;;27.50;;
72601;SDS011;60644;55.858;37.390;2024-03-02T05:54:22;60.92;;;28.85;;
72601;SDS011;60644;55.858;37.390;2024-03-02T05:56:47;54.30;;;26.10;;
72601;SDS011;60644;55.858;37.390;2024-03-02T05:59:13;61.17;;;27.63;;
72601;SDS011;60644;55.858;37.390;2024-03-02T06:01:41;57.60;;;27.15;;
72601;SDS011;60644;55.858;37.390;2024-03-02T06:04:08;59.33;;;27.02;;
72601;SDS011;60644;55.858;37.390;2024-03-02T06:06:34;56.70;;;26.37;;
72601;SDS011;60644;55.858;37.390;2024-03-02T06:09:03;58.67;;;26.77;;
72601;SDS011;60644;55.858;37.390;2024-03-02T06:11:39;52.20;;;25.90;;
72601;SDS011;60644;55.858;37.390;2024-03-02T06:14:08;58.78;;;26.48;;
72601;SDS011;60644;55.858;37.390;2024-03-02T06:16:34;54.90;;;25.60;;
72601;SDS011;60644;55.858;37.390;2024-03-02T06:19:00;59.90;;;25.27;;
72601;SDS011;60644;55.858;37.390;2024-03-02T06:21:29;56.00;;;26.13;;
72601;SDS011;60644;55.858;37.390;2024-03-02T06:23:54;57.67;;;24.52;;
72601;SDS011;60644;55.858;37.390;2024-03-02T06:26:20;56.67;;;24.80;;
72601;SDS011;60644;55.858;37.390;2024-03-02T06:28:46;59.50;;;26.13;;
72601;SDS011;60644;55.858;37.390;2024-03-02T06:31:12;56.07;;;25.03;;
72601;SDS011;60644;55.858;37.390;2024-03-02T06:33:37;52.83;;;24.08;;
72601;SDS011;60644;55.858;37.390;2024-03-02T06:36:03;57.93;;;25.53;;
72601;SDS011;60644;55.858;37.390;2024-03-02T06:38:29;52.13;;;23.90;;
72601;SDS011;60644;55.858;37.390;2024-03-02T06:40:57;50.03;;;24.30;;
72601;SDS011;60644;55.858;37.390;2024-03-02T06:43:23;50.67;;;24.10;;
72601;SDS011;60644;55.858;37.390;2024-03-02T06:45:49;50.67;;;23.75;;
72601;SDS011;60644;55.858;37.390;2024-03-02T06:48:15;52.22;;;23.80;;
72601;SDS011;60644;55.858;37.390;2024-03-02T06:50:46;51.83;;;22.53;;
72601;SDS011;60644;55.858;37.390;2024-03-02T06:53:12;49.63;;;23.38;;
72601;SDS011;60644;55.858;37.390;2024-03-02T06:55:38;47.20;;;23.02;;
72601;SDS011;60644;55.858;37.390;2024-03-02T06:58:03;48.87;;;22.63;;
72601;SDS011;60644;55.858;37.390;2024-03-02T07:00:30;45.80;;;23.00;;
72601;SDS011;60644;55.858;37.390;2024-03-02T07:02:55;51.00;;;23.07;;
72601;SDS011;60644;55.858;37.390;2024-03-02T07:05:21;51.85;;;24.23;;
72601;SDS011;60644;55.858;37.390;2024-03-02T07:07:46;43.03;;;22.10;;
72601;SDS011;60644;55.858;37.390;2024-03-02T07:10:12;46.67;;;22.43;;
72601;SDS011;60644;55.858;37.390;2024-03-02T07:12:38;44.75;;;22.35;;
72601;SDS011;60644;55.858;37.390;2024-03-02T07:15:04;49.90;;;22.50;;
72601;SDS011;60644;55.858;37.390;2024-03-02T07:17:32;47.22;;;22.52;;
72601;SDS011;60644;55.858;37.390;2024-03-02T07:19:58;46.20;;;22.00;;
72601;SDS011;60644;55.858;37.390;2024-03-02T07:22:24;46.00;;;21.60;;
72601;SDS011;60644;55.858;37.390;2024-03-02T07:24:49;43.33;;;21.80;;
72601;SDS011;60644;55.858;37.390;2024-03-02T07:27:15;47.57;;;22.63;;
72601;SDS011;60644;55.858;37.390;2024-03-02T07:29:41;45.58;;;22.00;;
72601;SDS011;60644;55.858;37.390;2024-03-02T07:32:09;42.28;;;21.50;;
72601;SDS011;60644;55.858;37.390;2024-03-02T07:34:38;47.20;;;21.48;;
72601;SDS011;60644;55.858;37.390;2024-03-02T07:37:04;49.07;;;22.90;;
72601;SDS011;60644;55.858;37.390;2024-03-02T07:39:31;47.53;;;23.42;;
72601;SDS011;60644;55.858;37.390;2024-03-02T07:41:56;49.17;;;22.65;;
72601;SDS011;60644;55.858;37.390;2024-03-02T07:44:22;44.40;;;22.33;;
72601;SDS011;60644;55.858;37.390;2024-03-02T07:46:51;48.45;;;22.55;;
72601;SDS011;60644;55.858;37.390;2024-03-02T07:49:16;45.70;;;21.57;;
72601;SDS011;60644;55.858;37.390;2024-03-02T07:51:42;51.00;;;25.27;;
72601;SDS011;60644;55.858;37.390;2024-03-02T07:54:08;47.63;;;22.92;;
72601;SDS011;60644;55.858;37.390;2024-03-02T07:56:34;48.37;;;22.93;;
72601;SDS011;60644;55.858;37.390;2024-03-02T07:59:00;50.17;;;24.35;;
72601;SDS011;60644;55.858;37.390;2024-03-02T08:01:27;48.80;;;23.27;;
72601;SDS011;60644;55.858;37.390;2024-03-02T08:03:53;46.70;;;22.43;;
72601;SDS011;60644;55.858;37.390;2024-03-02T08:06:20;50.95;;;22.45;;
72601;SDS011;60644;55.858;37.390;2024-03-02T08:08:47;44.40;;;22.13;;
72601;SDS011;60644;55.858;37.390;2024-03-02T08:11:13;48.05;;;23.58;;
72601;SDS011;60644;55.858;37.390;2024-03-02T08:13:39;52.73;;;24.00;;
72601;SDS011;60644;55.858;37.390;2024-03-02T08:16:05;50.08;;;22.95;;
72601;SDS011;60644;55.858;37.390;2024-03-02T08:18:33;50.92;;;24.27;;
72601;SDS011;60644;55.858;37.390;2024-03-02T08:20:58;49.23;;;22.97;;
72601;SDS011;60644;55.858;37.390;2024-03-02T08:23:24;51.70;;;23.98;;
72601;SDS011;60644;55.858;37.390;2024-03-02T08:25:50;48.63;;;24.47;;
72601;SDS011;60644;55.858;37.390;2024-03-02T08:28:16;51.88;;;24.05;;
72601;SDS011;60644;55.858;37.390;2024-03-02T08:30:42;48.88;;;24.55;;
72601;SDS011;60644;55.858;37.390;2024-03-02T08:33:08;50.05;;;23.65;;
72601;SDS011;60644;55.858;37.390;2024-03-02T08:35:34;47.77;;;23.07;;
72601;SDS011;60644;55.858;37.390;2024-03-02T08:38:04;48.13;;;24.30;;
72601;SDS011;60644;55.858;37.390;2024-03-02T08:40:31;52.50;;;25.00;;
72601;SDS011;60644;55.858;37.390;2024-03-02T08:42:57;51.67;;;24.77;;
72601;SDS011;60644;55.858;37.390;2024-03-02T08:45:23;47.40;;;24.25;;
72601;SDS011;60644;55.858;37.390;2024-03-02T08:47:48;49.63;;;22.87;;
72601;SDS011;60644;55.858;37.390;2024-03-02T08:50:14;49.97;;;23.20;;
72601;SDS011;60644;55.858;37.390;2024-03-02T08:52:40;53.13;;;25.08;;
72601;SDS011;60644;55.858;37.390;2024-03-02T08:55:06;49.53;;;22.58;;
72601;SDS011;60644;55.858;37.390;2024-03-02T08:57:33;45.55;;;22.58;;
72601;SDS011;60644;55.858;37.390;2024-03-02T08:59:59;48.50;;;23.65;;
72601;SDS011;60644;55.858;37.390;2024-03-02T09:02:25;50.28;;;22.10;;
72601;SDS011;60644;55.858;37.390;2024-03-02T09:04:50;48.20;;;22.30;;
72601;SDS011;60644;55.858;37.390;2024-03-02T09:07:16;45.03;;;21.70;;
72601;SDS011;60644;55.858;37.390;2024-03-02T09:09:42;47.57;;;22.97;;
72601;SDS011;60644;55.858;37.390;2024-03-02T09:12:07;48.60;;;22.67;;
72601;SDS011;60644;55.858;37.390;2024-03-02T09:14:33;45.03;;;21.83;;
72601;SDS011;60644;55.858;37.390;2024-03-02T09:17:00;44.95;;;23.08;;
72601;SDS011;60644;55.858;37.390;2024-03-02T09:19:25;44.80;;;21.03;;
72601;SDS011;60644;55.858;37.390;2024-03-02T09:21:51;45.33;;;21.30;;
72601;SDS011;60644;55.858;37.390;2024-03-02T09:24:17;41.38;;;20.25;;
72601;SDS011;60644;55.858;37.390;2024-03-02T09:26:42;46.57;;;21.73;;
72601;SDS011;60644;55.858;37.390;2024-03-02T09:29:08;43.70;;;21.80;;
72601;SDS011;60644;55.858;37.390;2024-03-02T09:31:39;39.73;;;19.30;;
72601;SDS011;60644;55.858;37.390;2024-03-02T09:34:04;42.30;;;20.15;;
72601;SDS011;60644;55.858;37.390;2024-03-02T09:36:30;45.60;;;21.73;;
72601;SDS011;60644;55.858;37.390;2024-03-02T09:39:01;42.57;;;20.77;;
72601;SDS011;60644;55.858;37.390;2024-03-02T09:41:32;41.80;;;21.10;;
72601;SDS011;60644;55.858;37.390;2024-03-02T09:43:58;45.47;;;22.10;;
72601;SDS011;60644;55.858;37.390;2024-03-02T09:46:24;43.40;;;21.27;;
72601;SDS011;60644;55.858;37.390;2024-03-02T09:48:50;47.43;;;22.60;;
72601;SDS011;60644;55.858;37.390;2024-03-02T09:51:15;46.05;;;23.30;;
72601;SDS011;60644;55.858;37.390;2024-03-02T09:53:44;44.35;;;22.48;;
72601;SDS011;60644;55.858;37.390;2024-03-02T09:56:10;43.13;;;20.27;;
72601;SDS011;60644;55.858;37.390;2024-03-02T09:58:36;41.77;;;21.93;;
72601;SDS011;60644;55.858;37.390;2024-03-02T10:01:05;45.88;;;22.13;;
72601;SDS011;60644;55.858;37.390;2024-03-02T10:03:30;43.15;;;21.52;;
72601;SDS011;60644;55.858;37.390;2024-03-02T10:06:17;48.22;;;22.88;;
72601;SDS011;60644;55.858;37.390;2024-03-02T10:08:44;43.95;;;23.25;;
72601;SDS011;60644;55.858;37.390;2024-03-02T10:11:10;46.10;;;21.02;;
72601;SDS011;60644;55.858;37.390;2024-03-02T10:13:36;44.65;;;22.15;;
72601;SDS011;60644;55.858;37.390;2024-03-02T10:16:11;45.75;;;21.67;;
72601;SDS011;60644;55.858;37.390;2024-03-02T10:18:37;40.30;;;20.02;;
72601;SDS011;60644;55.858;37.390;2024-03-02T10:21:15;39.97;;;21.53;;
72601;SDS011;60644;55.858;37.390;2024-03-02T10:23:43;46.53;;;23.05;;
72601;SDS011;60644;55.858;37.390;2024-03-02T10:26:18;54.40;;;23.15;;
72601;SDS011;60644;55.858;37.390;2024-03-02T10:28:47;48.65;;;23.25;;
72601;SDS011;60644;55.858;37.390;2024-03-02T10:31:13;45.83;;;21.90;;
72601;SDS011;60644;55.858;37.390;2024-03-02T10:33:39;48.13;;;22.00;;
72601;SDS011;60644;55.858;37.390;2024-03-02T10:36:05;44.05;;;21.85;;
72601;SDS011;60644;55.858;37.390;2024-03-02T10:38:31;43.20;;;21.87;;
72601;SDS011;60644;55.858;37.390;2024-03-02T10:40:57;44.90;;;23.17;;
72601;SDS011;60644;55.858;37.390;2024-03-02T10:43:25;42.17;;;21.63;;
72601;SDS011;60644;55.858;37.390;2024-03-02T10:45:51;38.37;;;19.73;;
72601;SDS011;60644;55.858;37.390;2024-03-02T10:48:18;44.53;;;21.75;;
72601;SDS011;60644;55.858;37.390;2024-03-02T10:50:44;44.35;;;21.88;;
72601;SDS011;60644;55.858;37.390;2024-03-02T10:53:10;41.53;;;21.35;;
72601;SDS011;60644;55.858;37.390;2024-03-02T10:55:36;44.10;;;21.50;;
72601;SDS011;60644;55.858;37.390;2024-03-02T10:58:01;44.38;;;20.35;;
72601;SDS011;60644;55.858;37.390;2024-03-02T11:00:32;39.60;;;20.27;;
72601;SDS011;60644;55.858;37.390;2024-03-02T11:03:05;42.70;;;20.57;;
72601;SDS011;60644;55.858;37.390;2024-03-02T11:05:38;42.55;;;20.65;;
72601;SDS011;60644;55.858;37.390;2024-03-02T11:08:08;41.05;;;21.05;;
72601;SDS011;60644;55.858;37.390;2024-03-02T11:10:37;41.45;;;20.00;;
72601;SDS011;60644;55.858;37.390;2024-03-02T11:13:06;42.35;;;20.60;;
72601;SDS011;60644;55.858;37.390;2024-03-02T11:15:34;36.97;;;18.83;;
72601;SDS011;60644;55.858;37.390;2024-03-02T11:18:01;37.92;;;19.08;;
72601;SDS011;60644;55.858;37.390;2024-03-02T11:20:30;40.15;;;20.70;;
72601;SDS011;60644;55.858;37.390;2024-03-02T11:22:56;42.95;;;19.48;;
72601;SDS011;60644;55.858;37.390;2024-03-02T11:25:26;38.27;;;20.00;;
72601;SDS011;60644;55.858;37.390;2024-03-02T11:35:24;39.87;;;18.80;;
72601;SDS011;60644;55.858;37.390;2024-03-02T11:37:51;41.53;;;20.42;;
72601;SDS011;60644;55.858;37.390;2024-03-02T11:40:26;43.55;;;19.05;;
72601;SDS011;60644;55.858;37.390;2024-03-02T11:42:52;47.20;;;21.23;;
72601;SDS011;60644;55.858;37.390;2024-03-02T11:45:22;45.45;;;20.92;;
72601;SDS011;60644;55.858;37.390;2024-03-02T11:47:51;37.47;;;19.10;;
72601;SDS011;60644;55.858;37.390;2024-03-02T11:50:28;41.80;;;20.02;;
72601;SDS011;60644;55.858;37.390;2024-03-02T11:52:55;42.15;;;19.08;;
72601;SDS011;60644;55.858;37.390;2024-03-02T11:55:21;40.03;;;20.25;;
72601;SDS011;60644;55.858;37.390;2024-03-02T11:57:47;45.72;;;20.55;;
72601;SDS011;60644;55.858;37.390;2024-03-02T12:00:17;38.92;;;20.00;;
72601;SDS011;60644;55.858;37.390;2024-03-02T12:02:43;44.28;;;19.85;;
72601;SDS011;60644;55.858;37.390;2024-03-02T12:05:13;39.75;;;20.13;;
72601;SDS011;60644;55.858;37.390;2024-03-02T12:07:38;43.07;;;20.00;;
72601;SDS011;60644;55.858;37.390;2024-03-02T12:10:04;45.15;;;19.20;;
72601;SDS011;60644;55.858;37.390;2024-03-02T12:12:31;38.63;;;19.40;;
72601;SDS011;60644;55.858;37.390;2024-03-02T12:14:56;43.33;;;19.75;;
72601;SDS011;60644;55.858;37.390;2024-03-02T12:17:22;36.60;;;18.90;;
72601;SDS011;60644;55.858;37.390;2024-03-02T12:19:48;43.97;;;20.92;;
72601;SDS011;60644;55.858;37.390;2024-03-02T12:22:14;42.45;;;20.10;;
72601;SDS011;60644;55.858;37.390;2024-03-02T12:24:41;42.50;;;19.73;;
72601;SDS011;60644;55.858;37.390;2024-03-02T12:27:07;41.38;;;20.30;;
72601;SDS011;60644;55.858;37.390;2024-03-02T12:29:33;41.42;;;20.08;;
72601;SDS011;60644;55.858;37.390;2024-03-02T12:31:59;45.30;;;19.30;;
72601;SDS011;60644;55.858;37.390;2024-03-02T12:34:25;43.88;;;20.00;;
72601;SDS011;60644;55.858;37.390;2024-03-02T12:36:51;37.92;;;19.50;;
72601;SDS011;60644;55.858;37.390;2024-03-02T12:39:18;45.90;;;21.37;;
72601;SDS011;60644;55.858;37.390;2024-03-02T12:41:45;43.50;;;19.75;;
72601;SDS011;60644;55.858;37.390;2024-03-02T12:44:11;45.25;;;20.02;;
72601;SDS011;60644;55.858;37.390;2024-03-02T12:46:37;42.75;;;20.10;;
72601;SDS011;60644;55.858;37.390;2024-03-02T12:49:07;44.27;;;19.30;;
72601;SDS011;60644;55.858;37.390;2024-03-02T12:51:34;40.15;;;19.42;;
72601;SDS011;60644;55.858;37.390;2024-03-02T12:54:00;40.08;;;19.80;;
72601;SDS011;60644;55.858;37.390;2024-03-02T12:56:26;36.97;;;17.23;;
72601;SDS011;60644;55.858;37.390;2024-03-02T12:58:55;40.10;;;19.50;;
72601;SDS011;60644;55.858;37.390;2024-03-02T13:01:21;40.13;;;19.55;;
72601;SDS011;60644;55.858;37.390;2024-03-02T13:03:50;38.58;;;17.27;;
72601;SDS011;60644;55.858;37.390;2024-03-02T13:06:20;37.80;;;18.42;;
72601;SDS011;60644;55.858;37.390;2024-03-02T13:08:46;40.90;;;18.27;;
72601;SDS011;60644;55.858;37.390;2024-03-02T13:11:12;37.07;;;18.37;;
72601;SDS011;60644;55.858;37.390;2024-03-02T13:13:39;34.40;;;17.25;;
72601;SDS011;60644;55.858;37.390;2024-03-02T13:16:09;39.47;;;18.92;;
72601;SDS011;60644;55.858;37.390;2024-03-02T13:18:36;40.60;;;17.92;;
72601;SDS011;60644;55.858;37.390;2024-03-02T13:21:02;38.70;;;18.67;;
72601;SDS011;60644;55.858;37.390;2024-03-02T13:23:28;28.10;;;13.60;;
72601;SDS011;60644;55.858;37.390;2024-03-02T13:25:56;34.28;;;15.95;;
72601;SDS011;60644;55.858;37.390;2024-03-02T13:28:26;34.95;;;17.30;;
72601;SDS011;60644;55.858;37.390;2024-03-02T13:30:55;27.80;;;14.70;;
72601;SDS011;60644;55.858;37.390;2024-03-02T13:33:21;37.58;;;18.02;;
72601;SDS011;60644;55.858;37.390;2024-03-02T13:35:52;35.87;;;17.20;;
72601;SDS011;60644;55.858;37.390;2024-03-02T13:38:18;38.72;;;17.60;;
72601;SDS011;60644;55.858;37.390;2024-03-02T13:40:48;33.65;;;17.90;;
72601;SDS011;60644;55.858;37.390;2024-03-02T13:43:16;35.27;;;17.93;;
72601;SDS011;60644;55.858;37.390;2024-03-02T13:45:42;34.60;;;17.23;;
72601;SDS011;60644;55.858;37.390;2024-03-02T13:48:08;36.53;;;17.65;;
72601;SDS011;60644;55.858;37.390;2024-03-02T13:50:33;33.33;;;17.23;;
72601;SDS011;60644;55.858;37.390;2024-03-02T13:52:59;37.00;;;18.38;;
72601;SDS011;60644;55.858;37.390;2024-03-02T13:55:25;33.03;;;17.30;;
72601;SDS011;60644;55.858;37.390;2024-03-02T13:57:51;35.35;;;16.75;;
72601;SDS011;60644;55.858;37.390;2024-03-02T14:00:17;32.92;;;15.80;;
72601;SDS011;60644;55.858;37.390;2024-03-02T14:02:43;35.30;;;16.52;;
72601;SDS011;60644;55.858;37.390;2024-03-02T14:05:09;33.70;;;17.03;;
72601;SDS011;60644;55.858;37.390;2024-03-02T14:07:37;34.65;;;16.95;;
72601;SDS011;60644;55.858;37.390;2024-03-02T14:10:05;27.92;;;15.25;;
72601;SDS011;60644;55.858;37.390;2024-03-02T14:12:31;34.85;;;16.63;;